Time;durP1;ratioP1;P1;durP2;ratioP2;P2;SDS_P1;SDS_P2;PMS_P1;PMS_P2;Temp;Humidity;BMP_temperature;BMP_pressure;BME280_temperature;BME280_humidity;BME280_pressure;Samples;Min_cycle;Max_cycle;Signal;HPM_P1;HPM_P2
2023/09/18 00:00:52;;;;;;;6.28;5.68;;;;;;;22.51;65.56;97730.22;4991661;28;20121;-71
2023/09/18 00:03:24;;;;;;;7.43;6.22;;;;;;;22.58;65.47;97736.00;4991207;28;20035;-73
2023/09/18 00:05:50;;;;;;;6.85;6.15;;;;;;;22.56;65.60;97727.28;4974722;28;20045;-71
2023/09/18 00:08:16;;;;;;;6.60;6.00;;;;;;;22.57;65.36;97718.72;4974407;28;20022;-74
2023/09/18 00:10:42;;;;;;;6.13;5.63;;;;;;;22.49;65.34;97705.88;4991641;28;20038;-74
2023/09/18 00:13:08;;;;;;;6.40;5.80;;;;;;;22.49;65.66;97700.38;4973761;28;20030;-73
2023/09/18 00:15:33;;;;;;;6.93;5.80;;;;;;;22.49;65.43;97705.88;4974303;28;20145;-74
2023/09/18 00:17:59;;;;;;;6.30;5.65;;;;;;;22.41;65.91;97700.41;4974522;28;20034;-72
2023/09/18 00:20:27;;;;;;;6.63;6.03;;;;;;;22.40;65.83;97690.59;4995109;28;20038;-71
2023/09/18 00:22:56;;;;;;;7.13;5.80;;;;;;;22.46;65.62;97705.72;4977421;28;20097;-73
2023/09/18 00:25:22;;;;;;;7.13;6.03;;;;;;;22.43;65.67;97709.13;4977368;28;20101;-73
2023/09/18 00:27:47;;;;;;;6.65;6.05;;;;;;;22.40;66.11;97701.56;4958480;28;20667;-73
2023/09/18 00:30:13;;;;;;;6.00;5.45;;;;;;;22.31;66.08;97692.59;4958065;28;20065;-73
2023/09/18 00:32:38;;;;;;;6.78;6.18;;;;;;;22.18;66.07;97660.72;4994923;28;20076;-73
2023/09/18 00:35:04;;;;;;;6.88;6.25;;;;;;;22.32;65.95;97688.69;4977174;28;20037;-75
2023/09/18 00:37:29;;;;;;;8.32;5.82;;;;;;;22.30;65.74;97685.50;4977417;28;20033;-73
2023/09/18 00:39:55;;;;;;;6.13;5.30;;;;;;;22.27;66.08;97680.66;4961467;28;20034;-73
2023/09/18 00:42:22;;;;;;;6.53;5.55;;;;;;;22.16;65.86;97663.78;4977362;28;20022;-73
2023/09/18 00:44:48;;;;;;;6.65;6.03;;;;;;;22.20;65.89;97674.91;4976936;28;20041;-73
2023/09/18 00:47:14;;;;;;;7.15;5.82;;;;;;;22.21;65.64;97671.03;4961255;28;20042;-73
2023/09/18 00:49:41;;;;;;;6.32;5.68;;;;;;;22.19;65.41;97673.31;4961172;28;20136;-71
2023/09/18 00:52:09;;;;;;;6.63;5.60;;;;;;;22.12;65.13;97659.31;4976970;28;20034;-71
2023/09/18 00:54:35;;;;;;;5.68;5.10;;;;;;;22.16;64.64;97661.06;4978071;28;20129;-71
2023/09/18 00:57:01;;;;;;;5.35;4.85;;;;;;;22.08;64.24;97650.16;4976976;28;20040;-71
2023/09/18 00:59:28;;;;;;;5.95;4.97;;;;;;;22.13;63.33;97664.44;4961669;28;20041;-71
2023/09/18 01:01:53;;;;;;;5.43;4.93;;;;;;;22.01;63.31;97651.44;4976945;28;20030;-72
2023/09/18 01:04:19;;;;;;;4.90;4.40;;;;;;;22.09;62.87;97662.72;4976396;28;20562;-71
2023/09/18 01:06:45;;;;;;;4.57;4.18;;;;;;;22.08;62.48;97659.16;4977071;28;20030;-71
2023/09/18 01:09:14;;;;;;;6.82;4.93;;;;;;;22.08;62.30;97655.63;4945788;28;20387;-73
2023/09/18 01:11:50;;;;;;;4.82;4.43;;;;;;;21.95;61.67;97630.84;4994315;28;20030;-72
2023/09/18 01:14:25;;;;;;;5.03;4.32;;;;;;;21.95;61.74;97639.06;4957182;28;20050;-71
2023/09/18 01:16:56;;;;;;;5.35;4.47;;;;;;;21.99;61.52;97644.69;4987229;28;20836;-71
2023/09/18 01:19:37;;;;;;;6.05;4.70;;;;;;;21.92;61.54;97637.00;4957813;28;20138;-70
2023/09/18 01:22:04;;;;;;;5.25;4.72;;;;;;;21.85;61.65;97630.41;4989647;28;20042;-71
2023/09/18 01:24:31;;;;;;;4.75;4.25;;;;;;;21.88;61.30;97640.72;4960116;28;20030;-72
2023/09/18 01:26:57;;;;;;;4.78;4.28;;;;;;;21.85;61.22;97644.94;4976437;28;20050;-71
2023/09/18 01:29:22;;;;;;;4.30;3.95;;;;;;;21.82;61.28;97647.50;4993520;28;20113;-71
2023/09/18 01:31:48;;;;;;;5.60;4.60;;;;;;;21.80;61.17;97647.81;4975978;28;20093;-71
2023/09/18 01:34:16;;;;;;;4.65;4.25;;;;;;;21.81;61.12;97646.69;4976091;28;20056;-73
2023/09/18 01:36:42;;;;;;;5.00;4.18;;;;;;;21.76;61.47;97646.88;4960321;28;20038;-71
2023/09/18 01:39:10;;;;;;;4.93;4.50;;;;;;;21.71;61.88;97652.53;4976533;28;20030;-71
2023/09/18 01:41:35;;;;;;;5.05;4.57;;;;;;;21.62;62.14;97646.31;4976624;28;20038;-72
2023/09/18 01:44:01;;;;;;;5.50;5.00;;;;;;;21.57;62.58;97641.00;4943768;28;20018;-72
2023/09/18 01:46:27;;;;;;;5.63;4.55;;;;;;;21.50;62.96;97635.22;4976071;28;20035;-72
2023/09/18 01:48:53;;;;;;;4.95;4.45;;;;;;;21.51;62.90;97636.84;4960068;28;20122;-72
2023/09/18 01:51:19;;;;;;;5.75;4.75;;;;;;;21.53;62.82;97640.06;4976272;28;20124;-73
2023/09/18 01:53:44;;;;;;;4.80;4.20;;;;;;;21.53;62.99;97628.28;4993213;28;20050;-73
2023/09/18 01:56:09;;;;;;;5.80;4.75;;;;;;;21.48;62.88;97626.53;4976363;28;20129;-73
2023/09/18 01:58:35;;;;;;;4.78;4.38;;;;;;;21.48;63.12;97626.53;4960024;28;20085;-73
2023/09/18 02:01:01;;;;;;;5.28;4.30;;;;;;;21.56;62.99;97622.16;4976559;28;20034;-73
2023/09/18 02:03:26;;;;;;;6.20;5.15;;;;;;;21.56;62.58;97624.91;4975401;28;20081;-73
2023/09/18 02:05:51;;;;;;;5.30;4.80;;;;;;;21.54;63.15;97627.94;4993240;28;20047;-71
2023/09/18 02:08:17;;;;;;;4.25;3.90;;;;;;;21.51;63.45;97620.41;4975871;28;20490;-71
2023/09/18 02:10:42;;;;;;;5.15;4.68;;;;;;;21.52;63.38;97627.47;4992939;28;20733;-71
2023/09/18 02:13:08;;;;;;;5.00;4.50;;;;;;;21.49;63.45;97622.66;4975040;28;20121;-73
2023/09/18 02:15:37;;;;;;;5.20;4.80;;;;;;;21.48;63.57;97621.06;4975614;28;20054;-71
2023/09/18 02:18:02;;;;;;;5.43;4.93;;;;;;;21.42;63.60;97622.38;4956289;28;20370;-73
2023/09/18 02:20:27;;;;;;;5.10;4.70;;;;;;;21.30;63.97;97622.25;4989352;28;20049;-71
2023/09/18 02:22:53;;;;;;;5.25;4.75;;;;;;;21.20;64.35;97615.19;4959319;28;20038;-70
2023/09/18 02:25:18;;;;;;;5.80;4.47;;;;;;;20.98;64.70;97600.91;4975140;28;20449;-71
2023/09/18 02:27:44;;;;;;;6.97;4.85;;;;;;;20.87;65.00;97594.94;4992968;28;20026;-70
2023/09/18 02:30:11;;;;;;;5.53;5.03;;;;;;;20.87;65.70;97605.09;4975625;28;20387;-71
2023/09/18 02:32:36;;;;;;;5.57;5.03;;;;;;;20.77;65.79;97600.75;4975231;28;20113;-72
2023/09/18 02:35:02;;;;;;;5.43;4.90;;;;;;;20.76;65.91;97598.34;4974942;28;20061;-72
2023/09/18 02:37:29;;;;;;;5.43;4.93;;;;;;;20.75;66.26;97602.22;4992876;28;20029;-71
2023/09/18 02:39:54;;;;;;;5.40;4.90;;;;;;;20.62;66.25;97582.13;4975338;28;20046;-71
2023/09/18 02:42:19;;;;;;;5.30;4.70;;;;;;;20.71;66.48;97593.03;4992439;28;20026;-71
2023/09/18 02:44:45;;;;;;;6.07;5.47;;;;;;;20.70;66.60;97600.44;4958553;28;20030;-71
2023/09/18 02:47:11;;;;;;;5.75;5.15;;;;;;;20.70;66.78;97599.66;4975311;28;20402;-70
2023/09/18 02:49:37;;;;;;;5.88;5.38;;;;;;;20.62;66.96;97587.59;4975087;28;20087;-71
2023/09/18 02:52:03;;;;;;;6.03;5.18;;;;;;;20.55;67.05;97588.09;4992524;28;20422;-71
2023/09/18 02:54:28;;;;;;;5.78;5.22;;;;;;;20.48;67.11;97587.78;4958146;28;20038;-70
2023/09/18 02:56:54;;;;;;;6.00;4.93;;;;;;;20.46;67.49;97584.56;4975057;28;20057;-70
2023/09/18 02:59:19;;;;;;;5.82;5.30;;;;;;;20.43;67.59;97582.47;4974883;28;20065;-71
2023/09/18 03:01:45;;;;;;;9.45;5.75;;;;;;;20.40;67.39;97579.53;4958889;28;20116;-69
2023/09/18 03:04:10;;;;;;;5.72;5.22;;;;;;;20.23;67.69;97563.97;4974601;28;20038;-70
2023/09/18 03:06:39;;;;;;;5.72;5.22;;;;;;;20.29;67.83;97579.09;4974944;28;20076;-71
2023/09/18 03:09:04;;;;;;;6.22;5.63;;;;;;;20.28;68.06;97576.69;4959043;28;20068;-72
2023/09/18 03:11:30;;;;;;;8.13;5.45;;;;;;;20.21;68.17;97568.91;4955596;28;20054;-73
2023/09/18 03:13:56;;;;;;;6.07;5.45;;;;;;;20.00;68.30;97543.31;4987873;28;20092;-72
2023/09/18 03:16:21;;;;;;;6.15;5.55;;;;;;;20.16;68.61;97569.09;4974947;28;20030;-73
2023/09/18 03:18:47;;;;;;;6.40;5.80;;;;;;;20.11;68.91;97562.97;4974981;28;20088;-71
2023/09/18 03:21:12;;;;;;;6.10;5.50;;;;;;;20.03;69.17;97556.34;4974834;28;20483;-71
2023/09/18 03:23:38;;;;;;;7.97;5.70;;;;;;;20.06;69.04;97552.19;4958127;28;20030;-73
2023/09/18 03:26:03;;;;;;;6.28;5.68;;;;;;;19.97;69.46;97522.94;4992253;28;20061;-72
2023/09/18 03:28:29;;;;;;;6.68;6.07;;;;;;;20.04;69.84;97533.38;4992206;28;20496;-72
2023/09/18 03:30:55;;;;;;;7.47;5.75;;;;;;;20.08;69.67;97528.88;4955656;28;20033;-72
2023/09/18 03:33:22;;;;;;;7.75;6.38;;;;;;;20.13;70.14;97512.31;4970343;28;20570;-72
2023/09/18 03:35:49;;;;;;;6.30;5.70;;;;;;;20.15;70.55;97504.59;4958581;28;20026;-74
2023/09/18 03:38:17;;;;;;;6.60;6.00;;;;;;;20.30;70.70;97509.59;4958077;28;20042;-71
2023/09/18 03:40:43;;;;;;;6.50;5.75;;;;;;;20.40;70.27;97506.50;4974606;28;20026;-72
2023/09/18 03:43:10;;;;;;;6.70;6.10;;;;;;;20.46;70.34;97516.16;4958022;28;20034;-72
2023/09/18 03:45:35;;;;;;;6.13;5.53;;;;;;;20.44;70.11;97510.19;4974506;28;20038;-70
2023/09/18 03:48:01;;;;;;;6.65;5.93;;;;;;;20.35;69.93;97508.63;4957671;28;20486;-70
2023/09/18 03:50:27;;;;;;;7.20;6.30;;;;;;;20.26;70.03;97508.63;4955224;28;20050;-71
2023/09/18 03:52:52;;;;;;;9.00;6.30;;;;;;;20.10;69.95;97491.06;4970273;28;20042;-70
2023/09/18 03:55:18;;;;;;;6.93;6.30;;;;;;;20.10;70.28;97515.69;4961900;28;20018;-70
2023/09/18 03:57:45;;;;;;;7.25;6.50;;;;;;;19.96;70.46;97496.72;4995613;28;20502;-72
2023/09/18 04:00:11;;;;;;;7.45;6.32;;;;;;;20.02;71.04;97502.81;4978129;28;20029;-71
2023/09/18 04:02:40;;;;;;;9.43;6.57;;;;;;;20.07;70.88;97508.09;4962056;28;20034;-71
2023/09/18 04:05:07;;;;;;;6.82;6.13;;;;;;;20.05;71.08;97507.63;4977531;28;20125;-71
2023/09/18 04:07:33;;;;;;;6.97;6.30;;;;;;;19.90;71.13;97491.72;4961956;28;20439;-71
2023/09/18 04:09:59;;;;;;;7.05;6.35;;;;;;;19.98;71.08;97512.78;4962031;28;20028;-71
2023/09/18 04:12:25;;;;;;;7.18;6.47;;;;;;;19.90;71.41;97511.66;4995052;28;20498;-72
2023/09/18 04:14:51;;;;;;;7.88;6.60;;;;;;;19.82;70.92;97497.97;4961363;28;20450;-74
2023/09/18 04:17:16;;;;;;;8.27;6.47;;;;;;;19.93;71.61;97521.13;4977640;28;20035;-72
2023/09/18 04:19:43;;;;;;;7.35;6.75;;;;;;;19.93;71.58;97511.00;4995337;28;20108;-72
2023/09/18 04:22:08;;;;;;;9.45;6.63;;;;;;;19.97;71.72;97514.72;4977477;28;20042;-72
2023/09/18 04:24:34;;;;;;;6.30;5.70;;;;;;;20.00;71.39;97505.88;4977348;28;20073;-72
2023/09/18 04:26:59;;;;;;;8.63;6.63;;;;;;;20.00;71.61;97502.31;4958168;28;20543;-73
2023/09/18 04:29:25;;;;;;;7.20;6.50;;;;;;;19.98;71.80;97518.25;4967947;28;20030;-73
2023/09/18 04:31:50;;;;;;;7.10;6.40;;;;;;;19.78;72.51;97596.22;4977384;28;20045;-72
2023/09/18 04:34:15;;;;;;;6.53;5.93;;;;;;;19.52;74.01;97602.72;4960867;28;20030;-74
2023/09/18 04:36:43;;;;;;;7.93;6.97;;;;;;;19.59;73.97;97570.28;4977175;28;20047;-73
2023/09/18 04:39:09;;;;;;;9.32;7.25;;;;;;;19.69;73.16;97559.88;4958408;28;20031;-71
2023/09/18 04:41:35;;;;;;;8.40;7.50;;;;;;;19.61;73.54;97562.56;4961383;28;20089;-71
2023/09/18 04:44:04;;;;;;;9.20;8.30;;;;;;;19.66;73.35;97546.03;4945374;28;20438;-72
2023/09/18 04:46:30;;;;;;;9.73;7.28;;;;;;;19.83;73.03;97543.31;4977260;28;20081;-72
2023/09/18 04:48:56;;;;;;;10.27;7.30;;;;;;;19.81;72.96;97523.72;4994982;28;20437;-72
2023/09/18 04:51:21;;;;;;;8.85;7.50;;;;;;;19.91;72.76;97528.84;4961680;28;20033;-72
2023/09/18 04:53:47;;;;;;;8.80;7.82;;;;;;;19.75;72.95;97514.84;4960937;28;20022;-72
2023/09/18 04:56:13;;;;;;;12.10;8.27;;;;;;;19.77;73.12;97530.94;4961056;28;20536;-72
2023/09/18 04:58:38;;;;;;;10.38;8.02;;;;;;;19.65;73.49;97509.69;4977550;28;20094;-73
2023/09/18 05:01:05;;;;;;;11.80;8.43;;;;;;;19.63;73.53;97522.06;4994742;28;20038;-72
2023/09/18 05:03:33;;;;;;;10.85;8.23;;;;;;;19.74;73.31;97524.16;4944617;28;20606;-72
2023/09/18 05:05:59;;;;;;;9.40;8.15;;;;;;;19.85;72.91;97530.16;4994275;28;20049;-72
2023/09/18 05:08:24;;;;;;;9.23;8.25;;;;;;;19.89;73.12;97536.56;4977320;28;20018;-73
2023/09/18 05:10:50;;;;;;;9.20;7.95;;;;;;;19.91;72.94;97521.47;4994691;28;20046;-72
2023/09/18 05:13:15;;;;;;;9.07;7.85;;;;;;;19.82;72.98;97514.38;4994196;28;20475;-71
2023/09/18 05:15:41;;;;;;;8.35;7.22;;;;;;;19.85;72.98;97535.63;4977282;28;20026;-71
2023/09/18 05:18:06;;;;;;;9.13;8.23;;;;;;;19.74;73.26;97517.94;4994638;28;20054;-71
2023/09/18 05:20:32;;;;;;;9.40;7.72;;;;;;;19.85;72.99;97524.69;4994777;28;20137;-72
2023/09/18 05:22:58;;;;;;;8.80;7.90;;;;;;;19.88;72.75;97530.28;4994258;28;20029;-72
2023/09/18 05:25:25;;;;;;;9.65;8.65;;;;;;;19.59;73.75;97540.22;4959934;28;20042;-71
2023/09/18 05:27:56;;;;;;;10.38;8.63;;;;;;;19.49;73.23;97537.78;4976596;28;20101;-71
2023/09/18 05:30:25;;;;;;;9.88;8.38;;;;;;;19.55;73.70;97542.00;4977139;28;20442;-71
2023/09/18 05:32:50;;;;;;;9.20;8.30;;;;;;;19.61;73.82;97568.03;4976463;28;20034;-72
2023/09/18 05:35:17;;;;;;;10.63;8.32;;;;;;;19.40;74.38;97556.06;4975851;28;20034;-71
2023/09/18 05:37:43;;;;;;;9.40;7.97;;;;;;;19.40;74.33;97567.00;4954611;28;20022;-71
2023/09/18 05:40:10;;;;;;;12.00;8.25;;;;;;;19.60;74.48;97589.09;4991631;28;20400;-72
2023/09/18 05:42:43;;;;;;;8.65;7.75;;;;;;;19.72;74.12;97586.53;4976251;28;20037;-71
2023/09/18 05:45:09;;;;;;;10.75;7.97;;;;;;;19.79;74.53;97586.09;4976280;28;20133;-72
2023/09/18 05:47:35;;;;;;;10.45;8.10;;;;;;;19.85;74.33;97593.81;4975994;28;20126;-71
2023/09/18 05:50:14;;;;;;;9.75;7.57;;;;;;;19.94;73.82;97600.09;4993450;28;20042;-72
2023/09/18 05:52:40;;;;;;;10.27;8.00;;;;;;;19.90;74.38;97617.47;4991130;28;20113;-71
2023/09/18 05:55:07;;;;;;;9.52;8.48;;;;;;;19.78;74.77;97606.34;4953488;28;20113;-72
2023/09/18 05:57:32;;;;;;;9.30;8.40;;;;;;;19.80;74.47;97596.69;4973848;28;20033;-72
2023/09/18 05:59:57;;;;;;;10.48;8.00;;;;;;;19.95;74.49;97618.09;4973988;28;20026;-73
2023/09/18 06:02:24;;;;;;;9.93;8.07;;;;;;;20.02;74.30;97602.03;4970930;28;20042;-74
2023/09/18 06:04:55;;;;;;;8.63;7.22;;;;;;;20.18;73.91;97588.72;4983488;28;20030;-73
2023/09/18 06:07:22;;;;;;;8.25;7.43;;;;;;;20.24;73.56;97581.97;4975773;28;20038;-73
2023/09/18 06:09:48;;;;;;;8.85;7.68;;;;;;;20.35;73.35;97582.47;4980041;28;20025;-72
2023/09/18 06:12:14;;;;;;;9.32;7.47;;;;;;;20.35;73.15;97550.44;4971229;28;20517;-73
2023/09/18 06:14:39;;;;;;;11.02;7.15;;;;;;;20.49;72.89;97553.78;4991212;28;20019;-74
2023/09/18 06:17:05;;;;;;;18.17;7.65;;;;;;;20.61;72.77;97559.41;4976976;28;20478;-73
2023/09/18 06:19:31;;;;;;;9.90;7.30;;;;;;;20.66;72.10;97564.72;4979094;28;20385;-73
2023/09/18 06:21:56;;;;;;;8.70;7.10;;;;;;;20.77;72.03;97565.16;4994617;28;20113;-74
2023/09/18 06:24:21;;;;;;;8.18;7.40;;;;;;;20.82;72.04;97580.66;4971606;28;20022;-73
2023/09/18 06:26:47;;;;;;;9.45;8.07;;;;;;;20.63;73.13;97573.56;4981355;28;20121;-72
2023/09/18 06:29:13;;;;;;;9.10;7.45;;;;;;;20.61;73.60;97564.88;4968050;28;20076;-69
2023/09/18 06:31:38;;;;;;;9.63;8.10;;;;;;;20.67;73.65;97563.63;4983016;28;20098;-73
2023/09/18 06:34:04;;;;;;;8.75;7.85;;;;;;;20.67;73.62;97574.56;4968175;28;20076;-74
2023/09/18 06:36:29;;;;;;;9.32;7.97;;;;;;;20.59;73.51;97566.34;4975794;28;20038;-74
2023/09/18 06:38:55;;;;;;;9.48;8.25;;;;;;;20.64;73.48;97591.63;4959464;28;20034;-72
2023/09/18 06:41:20;;;;;;;11.75;8.30;;;;;;;20.61;73.83;97575.03;4992664;28;20607;-72
2023/09/18 06:43:45;;;;;;;9.25;8.35;;;;;;;20.65;74.09;97576.00;4993858;28;20022;-73
2023/09/18 06:46:11;;;;;;;14.73;8.32;;;;;;;20.68;73.82;97559.72;4975585;28;20057;-71
2023/09/18 06:48:36;;;;;;;9.73;8.00;;;;;;;20.91;73.42;97567.75;4975039;28;20030;-71
2023/09/18 06:51:02;;;;;;;10.20;7.68;;;;;;;21.02;73.10;97555.28;4975510;28;20200;-73
2023/09/18 06:53:27;;;;;;;8.57;7.53;;;;;;;21.08;72.16;97551.28;4992409;28;20041;-71
2023/09/18 06:55:53;;;;;;;8.82;7.93;;;;;;;21.18;72.57;97556.41;4975454;28;20034;-72
2023/09/18 06:58:19;;;;;;;9.18;7.60;;;;;;;21.18;72.16;97529.00;4992815;28;20027;-72
2023/09/18 07:00:44;;;;;;;7.70;6.88;;;;;;;21.37;71.71;97526.66;4975285;28;20046;-71
2023/09/18 07:03:11;;;;;;;8.93;7.07;;;;;;;21.44;71.02;97516.00;4991949;28;20015;-71
2023/09/18 07:05:37;;;;;;;8.57;7.22;;;;;;;21.40;70.75;97508.75;4975197;28;20049;-71
2023/09/18 07:08:04;;;;;;;7.70;6.90;;;;;;;21.41;70.50;97489.25;4975288;28;20397;-73
2023/09/18 07:10:29;;;;;;;8.85;7.05;;;;;;;21.41;69.85;97497.47;4975186;28;20481;-71
2023/09/18 07:12:55;;;;;;;7.75;6.82;;;;;;;21.41;69.99;97483.75;4974960;28;20026;-72
2023/09/18 07:15:20;;;;;;;7.85;6.28;;;;;;;21.52;69.88;97493.19;4958679;28;20170;-73
2023/09/18 07:17:46;;;;;;;10.00;7.47;;;;;;;21.52;69.94;97495.94;4975314;28;20022;-72
2023/09/18 09:17:06;;;;;;;8.80;6.47;;;;;;;23.80;65.64;97595.97;5100892;27;20382;-71
2023/09/18 09:19:38;;;;;;;9.90;6.22;;;;;;;24.35;64.23;97595.31;5088335;28;20044;-71
2023/09/18 09:22:04;;;;;;;8.40;5.38;;;;;;;24.63;63.11;97590.66;5048397;28;20040;-70
2023/09/18 09:24:40;;;;;;;10.25;5.65;;;;;;;24.80;61.89;97595.09;5064855;28;20075;-71
2023/09/18 09:27:06;;;;;;;12.38;5.50;;;;;;;25.00;61.18;97593.25;5067339;28;20033;-69
2023/09/18 09:29:31;;;;;;;9.93;4.93;;;;;;;25.11;59.22;97583.34;5061151;28;20373;-69
2023/09/18 09:32:12;;;;;;;8.77;5.10;;;;;;;25.26;58.18;97590.81;5065263;28;20511;-69
2023/09/18 09:34:37;;;;;;;8.93;5.78;;;;;;;25.16;58.20;97575.59;5060034;28;20052;-69
2023/09/18 09:37:04;;;;;;;7.47;4.95;;;;;;;25.36;58.38;97585.56;5062139;28;20029;-70
2023/09/18 09:39:30;;;;;;;8.85;4.53;;;;;;;25.34;57.90;97581.56;5062455;28;20037;-69
2023/09/18 09:42:03;;;;;;;9.80;4.78;;;;;;;25.45;58.05;97576.34;5061609;28;20025;-71
2023/09/18 09:44:31;;;;;;;8.43;4.38;;;;;;;25.48;57.36;97581.16;5042533;28;20049;-73
2023/09/18 09:46:59;;;;;;;10.90;4.95;;;;;;;25.18;57.23;97553.19;5047645;28;20029;-72
2023/09/18 09:49:27;;;;;;;7.03;4.38;;;;;;;25.14;57.90;97560.56;5068251;28;20510;-73
2023/09/18 09:51:54;;;;;;;10.02;4.28;;;;;;;25.27;56.81;97559.34;5066764;28;20473;-74
2023/09/18 09:54:40;;;;;;;7.05;4.00;;;;;;;25.34;57.37;97548.50;5055909;28;20064;-71
2023/09/18 09:57:06;;;;;;;9.13;4.38;;;;;;;25.49;55.46;97547.69;5062782;28;20071;-71
2023/09/18 09:59:35;;;;;;;8.15;3.92;;;;;;;25.64;55.56;97555.16;5057207;28;20040;-71
2023/09/18 10:02:00;;;;;;;11.38;3.17;;;;;;;25.55;54.40;97549.03;5049773;28;20041;-70
2023/09/18 10:04:27;;;;;;;5.45;3.20;;;;;;;25.56;53.97;97539.59;5053842;28;20029;-70
2023/09/18 10:06:56;;;;;;;12.65;3.70;;;;;;;25.87;54.03;97561.63;5051123;28;20044;-70
2023/09/18 10:09:23;;;;;;;8.23;3.70;;;;;;;26.00;54.09;97556.78;5047146;28;20037;-71
2023/09/18 10:11:52;;;;;;;6.22;3.47;;;;;;;26.06;53.97;97547.88;5066618;28;20036;-70
2023/09/18 10:14:20;;;;;;;11.32;3.50;;;;;;;25.98;53.75;97551.63;5046597;28;20124;-70
2023/09/18 10:16:49;;;;;;;7.45;3.22;;;;;;;26.06;54.20;97564.44;5043404;28;20546;-72
2023/09/18 10:19:38;;;;;;;6.53;3.00;;;;;;;25.85;53.65;97577.75;5055290;28;20037;-70
2023/09/18 10:22:20;;;;;;;7.80;2.95;;;;;;;25.92;53.90;97577.09;5049477;28;20472;-72
2023/09/18 10:24:47;;;;;;;5.82;3.05;;;;;;;26.04;52.79;97577.00;5063580;28;20428;-72
2023/09/18 10:27:13;;;;;;;6.53;2.67;;;;;;;26.17;52.64;97572.16;5050655;28;20051;-70
2023/09/18 10:29:41;;;;;;;5.97;2.90;;;;;;;26.16;52.30;97567.81;5049327;28;20492;-70
2023/09/18 10:32:10;;;;;;;6.57;2.90;;;;;;;26.20;52.47;97585.25;5043802;28;20036;-70
2023/09/18 10:34:36;;;;;;;5.50;2.72;;;;;;;26.36;52.59;97588.75;5049283;28;20040;-71
2023/09/18 10:37:06;;;;;;;5.30;2.83;;;;;;;26.24;52.20;97602.69;5041150;28;20033;-70
2023/09/18 10:39:34;;;;;;;6.30;3.03;;;;;;;26.09;52.57;97607.09;5046580;28;20113;-70
2023/09/18 10:42:01;;;;;;;6.65;2.60;;;;;;;26.03;52.77;97609.31;5045193;28;20434;-70
2023/09/18 10:44:28;;;;;;;5.63;2.50;;;;;;;25.98;53.31;97617.84;5040692;28;20465;-70
2023/09/18 10:46:54;;;;;;;5.82;2.45;;;;;;;25.74;52.72;97612.53;5038809;28;20500;-70
2023/09/18 10:49:19;;;;;;;3.70;2.08;;;;;;;25.85;52.63;97619.13;5052712;28;20036;-70
2023/09/18 10:51:46;;;;;;;7.05;2.40;;;;;;;25.80;52.71;97627.69;5052577;28;20029;-71
2023/09/18 10:54:16;;;;;;;6.20;2.00;;;;;;;25.73;50.94;97627.50;5032115;28;20091;-71
2023/09/18 10:56:42;;;;;;;3.60;1.73;;;;;;;25.60;51.04;97639.75;5038755;28;20025;-70
2023/09/18 10:59:08;;;;;;;9.10;1.90;;;;;;;25.35;51.74;97627.28;5052567;28;20089;-70
2023/09/18 11:01:36;;;;;;;4.00;1.58;;;;;;;25.57;51.73;97634.97;5050100;28;20446;-70
2023/09/18 11:04:03;;;;;;;5.18;1.80;;;;;;;25.49;51.75;97630.44;5045362;28;20029;-70
2023/09/18 11:06:29;;;;;;;6.13;2.15;;;;;;;25.56;51.96;97638.88;5047031;28;20024;-70
2023/09/18 11:09:03;;;;;;;7.28;2.00;;;;;;;25.59;51.98;97615.31;5052308;28;20044;-71
2023/09/18 11:11:32;;;;;;;9.05;1.95;;;;;;;25.80;52.12;97627.69;5051130;28;20040;-71
2023/09/18 11:13:58;;;;;;;7.68;1.90;;;;;;;25.83;52.75;97621.44;5031958;28;20511;-70
2023/09/18 11:16:27;;;;;;;4.60;1.70;;;;;;;26.01;51.42;97642.00;5045603;28;20033;-70
2023/09/18 11:18:53;;;;;;;5.10;1.70;;;;;;;26.00;51.98;97653.38;5043039;28;20392;-70
2023/09/18 11:21:23;;;;;;;5.82;1.77;;;;;;;25.82;51.55;97644.66;5050169;28;20041;-70
2023/09/18 11:24:00;;;;;;;6.05;1.88;;;;;;;25.63;50.64;97661.13;5042176;28;20029;-72
2023/09/18 11:26:34;;;;;;;3.63;1.48;;;;;;;25.28;50.80;97665.69;5046725;28;20025;-72
2023/09/18 11:29:04;;;;;;;5.70;1.40;;;;;;;24.95;51.24;97673.44;5041652;28;20480;-71
2023/09/18 11:31:50;;;;;;;3.63;1.33;;;;;;;24.66;52.78;97656.06;5038377;28;20504;-72
2023/09/18 11:34:26;;;;;;;8.70;1.90;;;;;;;24.68;53.99;97670.28;5047635;28;20036;-71
2023/09/18 11:36:52;;;;;;;5.20;1.92;;;;;;;24.42;55.05;97660.81;5040845;28;20402;-74
2023/09/18 11:39:37;;;;;;;3.58;1.48;;;;;;;24.22;56.45;97679.09;5048356;28;20037;-71
2023/09/18 11:42:09;;;;;;;5.38;1.83;;;;;;;24.07;58.39;97671.50;5051395;28;20583;-72
2023/09/18 11:44:40;;;;;;;5.85;1.70;;;;;;;23.93;59.49;97673.78;5052758;28;20048;-73
2023/09/18 11:47:07;;;;;;;4.72;1.83;;;;;;;23.62;60.21;97659.78;5048736;28;20516;-72
2023/09/18 11:49:33;;;;;;;7.35;1.90;;;;;;;23.59;60.38;97676.97;5048345;28;20032;-73
2023/09/18 11:51:59;;;;;;;5.60;2.20;;;;;;;23.42;61.36;97671.66;5048477;28;20033;-73
2023/09/18 11:54:25;;;;;;;5.47;1.67;;;;;;;23.44;61.50;97680.34;5031257;28;20033;-73
2023/09/18 11:56:50;;;;;;;5.85;1.75;;;;;;;23.24;62.02;97671.78;5045656;28;20033;-72
2023/09/18 11:59:17;;;;;;;5.30;2.00;;;;;;;23.07;63.45;97682.97;5052671;28;20419;-73
2023/09/18 12:01:46;;;;;;;6.55;1.80;;;;;;;22.93;63.83;97701.69;5048881;28;20120;-72
2023/09/18 12:04:12;;;;;;;5.72;2.20;;;;;;;22.78;65.18;97724.25;5052058;28;20025;-72
2023/09/18 12:06:41;;;;;;;9.77;2.30;;;;;;;22.61;66.93;97744.38;5049212;28;20033;-72
2023/09/18 12:09:08;;;;;;;7.60;2.40;;;;;;;22.29;67.96;97744.22;5051187;28;20408;-73
2023/09/18 12:11:39;;;;;;;5.28;2.13;;;;;;;22.18;68.41;97743.00;5049691;28;20637;-72
2023/09/18 12:14:05;;;;;;;7.20;2.40;;;;;;;22.07;69.28;97747.25;5046836;28;20374;-72
2023/09/18 12:16:30;;;;;;;5.28;2.25;;;;;;;21.79;70.82;97758.63;5049971;28;20032;-72
2023/09/18 12:18:56;;;;;;;8.45;2.63;;;;;;;21.65;72.48;97763.50;5047692;28;20109;-72
2023/09/18 12:21:22;;;;;;;7.47;2.38;;;;;;;21.31;73.96;97758.09;5050107;28;20038;-72
2023/09/18 12:23:48;;;;;;;7.13;2.65;;;;;;;21.32;74.85;97773.41;5043583;28;20037;-72
2023/09/18 12:26:15;;;;;;;5.80;2.80;;;;;;;21.31;75.27;97769.03;5045491;28;20083;-72
2023/09/18 12:28:42;;;;;;;7.30;3.10;;;;;;;21.30;76.00;97765.50;5046988;28;20040;-72
2023/09/18 12:31:12;;;;;;;10.02;2.50;;;;;;;21.28;76.40;97781.44;5049107;28;20021;-72
2023/09/18 12:33:38;;;;;;;5.53;2.65;;;;;;;21.17;77.48;97757.44;5049707;28;20036;-72
2023/09/18 12:36:05;;;;;;;6.25;2.40;;;;;;;21.20;76.95;97767.75;5046479;28;20021;-72
2023/09/18 12:38:31;;;;;;;4.47;2.53;;;;;;;21.11;77.28;97747.81;5021045;28;20044;-72
2023/09/18 12:41:00;;;;;;;9.35;2.58;;;;;;;21.20;77.35;97748.59;5043742;28;20025;-72
2023/09/18 12:43:29;;;;;;;6.38;2.63;;;;;;;21.28;77.27;97732.13;5041453;28;20068;-72
2023/09/18 12:45:55;;;;;;;7.93;3.45;;;;;;;21.44;77.84;97728.91;5051172;28;20029;-72
2023/09/18 12:48:21;;;;;;;6.25;3.67;;;;;;;21.33;78.82;97706.53;5050998;28;20056;-72
2023/09/18 12:50:52;;;;;;;6.03;2.70;;;;;;;21.47;78.57;97712.59;5046255;28;20036;-70
2023/09/18 12:53:22;;;;;;;6.65;2.97;;;;;;;21.42;79.04;97693.63;5021225;28;20120;-71
2023/09/18 12:55:48;;;;;;;7.20;2.83;;;;;;;21.53;78.66;97715.97;5048555;28;20091;-72
2023/09/18 12:58:13;;;;;;;6.65;3.08;;;;;;;21.27;79.25;97696.84;5049806;28;20029;-71
2023/09/18 13:00:49;;;;;;;6.18;2.60;;;;;;;21.32;78.96;97724.09;5049621;28;20580;-71
2023/09/18 13:03:14;;;;;;;;;;;;;;;20.99;79.84;97717.50;5046256;28;20033;-71
2023/09/18 13:05:40;;;;;;;6.57;2.90;;;;;;;21.11;79.81;97725.88;5049259;28;20046;-71
2023/09/18 13:08:05;;;;;;;4.68;3.05;;;;;;;21.03;80.03;97696.53;5046405;28;20041;-72
2023/09/18 13:11:02;;;;;;;6.82;2.83;;;;;;;21.05;80.10;97717.03;5045904;28;20178;-71
2023/09/18 13:13:29;;;;;;;7.15;2.60;;;;;;;21.09;79.73;97692.56;4995154;28;20049;-71
2023/09/18 13:15:59;;;;;;;6.28;2.65;;;;;;;21.24;79.52;97694.75;5039765;28;20068;-72
2023/09/18 13:18:25;;;;;;;3.45;2.13;;;;;;;21.23;79.13;97690.44;5046277;28;20034;-72
2023/09/18 13:20:51;;;;;;;6.32;2.55;;;;;;;20.99;78.96;97662.72;5041810;28;20032;-72
2023/09/18 13:23:17;;;;;;;5.82;2.75;;;;;;;21.23;79.09;97691.25;5045524;28;20096;-73
2023/09/18 13:25:44;;;;;;;6.13;2.28;;;;;;;21.22;78.51;97699.78;5020843;28;20651;-72
2023/09/18 13:28:11;;;;;;;8.48;2.20;;;;;;;21.18;78.59;97698.81;5043713;28;20048;-72
2023/09/18 13:30:41;;;;;;;6.50;2.50;;;;;;;21.13;78.47;97693.50;5037549;28;20031;-72